Aeroporto :
LOGIN :

Iscrizione | Disclaimer

   EN    FR    IT 

 










Sommario :    VFR   VFR Marginale   IFR   IFR Intensivo   IFR Molto Intensivo
Visibilità : 
Base nubi : 
>= 8 km
>= 3000ft
5 / 8 km
1000 / 3000 ft
1500m / 5 km
500 / 1000 ft
800 / 1500m
200 / 500 ft
< 800m
< 200 ft
Simboli :   Temporali  Nebbia  Neve Forte  Precipitazioni Forti  Vento > 20 kt
SIGMETs :   Varie  Temporali  Ghiacco  Turbolenza  Onda orograficha  Ceneri Vulcaniche






- Altitudine del aeroporto : 913 ft


LFSX - Luxeuil

ULTIMO METAR :
  • 131030Z AUTO 29006KT 250V310 CAVOK 20/11 Q1015

METARs OBSOLETI :
  • 131000Z AUTO 22004KT 150V290 CAVOK ///// Q1015
  • 130930Z AUTO VRB03KT 9999 SCT034 BKN090 19/12 Q1015
  • 130900Z AUTO VRB02KT 9999 SCT029 BKN036 BKN066 ///// Q1015
  • 130830Z AUTO VRB02KT 9999 FEW019 19/13 Q1015
  • 130800Z AUTO VRB03KT 9999 FEW019 17/13 Q1016
  • 130730Z AUTO VRB03KT 9999 FEW015 SCT025 BKN047 16/12 Q1016
  • 130700Z AUTO VRB03KT 9999 FEW014 OVC026 16/13 Q1016
  • 130630Z AUTO 25004KT 9999 OVC023 15/13 Q1016
  • 130600Z AUTO 27005KT 9999 FEW006 SCT011 BKN020 15/14 Q1015

Previsioni scadute.



MetMap, La meteo Aeronautica in un colpo d'occhio ! - Copyright ORBIFLY Dicembre 2007 - Disclaimer

ORBIFLY MET'MAP TEAM :

Programmazione e sviluppo : Alexandra Zaïnal
Concezione : Baudouin d'Aumeries
Supporto tecnico e logistico : Manuel Goepfert
Aiuto : Marc-Olivier Méhu
Aiuto per la traduzione : Arnaldo La Scala




FONTI E CREDITI :

   NOAA